Time;durP1;ratioP1;P1;durP2;ratioP2;P2;SDS_P1;SDS_P2;PMS_P1;PMS_P2;Temp;Humidity;BMP_temperature;BMP_pressure;BME280_temperature;BME280_humidity;BME280_pressure;Samples;Min_cycle;Max_cycle;Signal;HPM_P1;HPM_P2
2023/04/04 00:00:31;;;;;;;4.30;2.45;;;;;;;5.04;30.17;102509.88;5030374;28;20072;-71
2023/04/04 00:02:59;;;;;;;4.00;2.10;;;;;;;5.03;30.52;102510.81;5027410;28;20049;-72
2023/04/04 00:05:27;;;;;;;5.18;2.22;;;;;;;5.01;30.15;102512.69;5022656;28;20041;-71
2023/04/04 00:07:55;;;;;;;5.40;2.00;;;;;;;4.99;30.46;102506.44;5023912;28;20520;-72
2023/04/04 00:10:23;;;;;;;5.32;2.22;;;;;;;4.98;30.68;102511.91;5029093;28;20357;-71
2023/04/04 00:12:52;;;;;;;3.95;2.00;;;;;;;4.97;30.70;102510.13;5027484;28;20053;-72
2023/04/04 00:15:20;;;;;;;5.10;2.30;;;;;;;4.95;30.42;102512.06;5025787;28;20060;-71
2023/04/04 00:17:49;;;;;;;5.25;2.33;;;;;;;4.92;30.67;102510.31;5026469;28;20080;-71
2023/04/04 00:20:17;;;;;;;4.05;2.40;;;;;;;4.90;30.50;102509.50;5027887;28;20584;-71
2023/04/04 00:22:45;;;;;;;4.57;2.20;;;;;;;4.88;30.51;102506.84;5058823;28;20137;-71
2023/04/04 00:25:13;;;;;;;4.90;2.28;;;;;;;4.87;30.32;102515.06;5026473;28;20054;-71
2023/04/04 00:27:41;;;;;;;4.78;2.20;;;;;;;4.84;30.47;102507.91;5027974;28;20045;-72
2023/04/04 00:30:12;;;;;;;4.93;2.55;;;;;;;4.84;30.83;102505.19;5021736;28;20033;-71
2023/04/04 00:32:41;;;;;;;6.60;2.13;;;;;;;4.79;30.62;102509.03;5026745;28;20054;-71
2023/04/04 00:35:09;;;;;;;5.15;2.22;;;;;;;4.78;30.93;102502.72;5026221;28;20045;-71
2023/04/04 00:37:37;;;;;;;5.07;2.13;;;;;;;4.76;30.97;102504.59;5038950;23;20092;-71
2023/04/04 00:40:07;;;;;;;3.97;2.00;;;;;;;4.76;30.64;102509.13;5062299;28;20484;-71
2023/04/04 00:42:36;;;;;;;4.22;1.88;;;;;;;4.70;30.63;102510.25;5057758;28;20776;-71
2023/04/04 00:45:04;;;;;;;5.38;2.10;;;;;;;4.69;30.87;102511.19;5063403;28;20058;-71
2023/04/04 00:47:34;;;;;;;3.08;1.90;;;;;;;4.67;31.05;102515.78;5061096;28;20051;-71
2023/04/04 00:50:03;;;;;;;3.50;1.75;;;;;;;4.64;30.93;102518.59;5055296;28;20048;-71
2023/04/04 00:52:30;;;;;;;3.17;1.67;;;;;;;4.62;30.57;102511.47;5062762;28;20057;-72
2023/04/04 00:55:00;;;;;;;3.38;1.83;;;;;;;4.59;30.76;102511.56;5056562;28;20479;-72
2023/04/04 00:57:28;;;;;;;4.45;1.95;;;;;;;4.55;30.82;102510.81;5061559;28;20056;-72
2023/04/04 00:59:57;;;;;;;4.30;1.95;;;;;;;4.52;30.86;102511.81;5055750;28;20037;-72
2023/04/04 01:02:25;;;;;;;2.85;1.75;;;;;;;4.50;30.83;102512.78;5054295;28;20048;-72
2023/04/04 01:04:56;;;;;;;4.68;1.85;;;;;;;4.48;30.69;102520.97;5058677;28;20111;-72
2023/04/04 01:07:24;;;;;;;4.32;1.95;;;;;;;4.45;30.80;102515.69;5052407;28;20050;-72
2023/04/04 01:09:52;;;;;;;3.70;1.90;;;;;;;4.43;30.84;102512.13;5063703;28;20415;-72
2023/04/04 01:12:20;;;;;;;5.30;2.10;;;;;;;4.40;31.18;102511.34;5059587;28;20061;-72
2023/04/04 01:14:48;;;;;;;4.07;1.70;;;;;;;4.38;31.11;102510.53;5058700;28;20571;-73
2023/04/04 01:17:16;;;;;;;5.00;1.95;;;;;;;4.35;31.20;102514.22;5055897;28;20049;-72
2023/04/04 01:19:49;;;;;;;4.15;2.00;;;;;;;4.33;31.06;102507.97;5062148;28;20131;-72
2023/04/04 01:22:22;;;;;;;4.40;2.10;;;;;;;4.30;31.28;102501.78;5060261;28;20499;-72
2023/04/04 01:24:51;;;;;;;4.47;1.92;;;;;;;4.29;31.14;102503.63;5059584;28;20503;-72
2023/04/04 01:27:22;;;;;;;3.97;1.80;;;;;;;4.27;31.20;102501.88;5052682;28;20596;-72
2023/04/04 01:29:55;;;;;;;3.85;1.98;;;;;;;4.24;31.37;102507.41;5052472;28;20135;-72
2023/04/04 01:32:29;;;;;;;3.33;1.73;;;;;;;4.25;31.42;102506.47;5060318;28;20518;-72
2023/04/04 01:35:02;;;;;;;5.43;1.88;;;;;;;4.23;31.23;102500.22;5059930;28;20040;-72
2023/04/04 01:37:35;;;;;;;;;;;;;;;3.96;31.78;102500.25;5076330;28;20724;-72
2023/04/04 01:40:11;;;;;;;3.10;1.60;;;;;;;4.16;31.24;102499.53;5058835;28;19924;-72
2023/04/04 01:42:43;;;;;;;3.20;1.85;;;;;;;4.18;31.44;102494.97;5058916;28;20506;-72
2023/04/04 01:45:11;;;;;;;3.78;1.80;;;;;;;4.17;31.19;102493.19;5057191;28;21740;-72
2023/04/04 01:47:40;;;;;;;3.65;2.00;;;;;;;4.16;31.33;102494.13;5058440;28;20064;-72
2023/04/04 01:50:12;;;;;;;3.83;1.70;;;;;;;4.15;31.64;102493.22;5051465;28;20516;-72
2023/04/04 01:52:41;;;;;;;3.88;1.90;;;;;;;4.16;31.42;102499.53;5055413;28;20041;-72
2023/04/04 01:55:09;;;;;;;3.75;2.08;;;;;;;4.16;31.48;102492.28;5060006;28;20067;-72
2023/04/04 01:57:38;;;;;;;5.25;2.33;;;;;;;4.16;31.49;102489.59;5060362;28;20041;-73
2023/04/04 02:00:09;;;;;;;4.78;2.00;;;;;;;4.18;31.61;102491.38;5055678;28;20029;-72
2023/04/04 02:02:43;;;;;;;3.75;2.00;;;;;;;4.14;31.47;102490.59;5061606;28;20052;-72
2023/04/04 02:05:12;;;;;;;5.57;2.10;;;;;;;4.15;31.53;102493.22;5058974;28;20041;-72
2023/04/04 02:07:40;;;;;;;4.07;1.80;;;;;;;4.15;31.29;102497.75;5060865;28;20036;-72
2023/04/04 02:10:21;;;;;;;4.45;2.05;;;;;;;4.14;31.50;102488.75;5057906;28;20650;-71
2023/04/04 02:12:49;;;;;;;2.88;1.92;;;;;;;4.15;31.49;102495.94;5058289;28;20447;-72
2023/04/04 02:15:18;;;;;;;4.53;2.10;;;;;;;4.17;31.63;102495.91;5066692;28;20040;-72
2023/04/04 02:17:48;;;;;;;3.65;2.00;;;;;;;4.15;31.53;102497.75;5057070;28;20127;-72
2023/04/04 02:20:18;;;;;;;4.78;2.20;;;;;;;4.14;31.58;102501.44;5053705;28;20040;-72
2023/04/04 02:22:53;;;;;;;4.03;2.00;;;;;;;4.16;31.82;102494.13;5056329;28;20063;-72
2023/04/04 02:25:22;;;;;;;3.58;1.88;;;;;;;4.13;31.44;102495.13;5063600;28;20044;-72
2023/04/04 02:27:51;;;;;;;5.18;2.05;;;;;;;4.12;31.94;102490.66;5082946;28;20140;-72
2023/04/04 02:30:20;;;;;;;3.70;2.00;;;;;;;4.13;31.65;102486.13;5061551;28;20083;-72
2023/04/04 02:32:49;;;;;;;3.10;1.90;;;;;;;4.11;31.65;102483.47;5056857;28;20044;-72
2023/04/04 02:35:20;;;;;;;3.97;1.95;;;;;;;4.10;31.66;102478.97;5059971;28;20044;-72
2023/04/04 02:37:48;;;;;;;4.90;2.00;;;;;;;4.09;32.00;102490.75;5055826;28;20482;-72
2023/04/04 02:40:34;;;;;;;4.80;2.30;;;;;;;4.07;31.83;102479.06;5052710;28;20488;-72
2023/04/04 02:43:02;;;;;;;4.90;2.20;;;;;;;4.06;31.88;102473.69;5057456;28;20044;-72
2023/04/04 02:45:32;;;;;;;4.78;1.95;;;;;;;4.05;31.94;102469.25;5061525;28;20053;-72
2023/04/04 02:48:12;;;;;;;5.38;2.55;;;;;;;4.03;31.53;102468.41;5053254;28;20033;-72
2023/04/04 02:50:46;;;;;;;;;;;;;;;3.78;32.21;102469.25;5080119;28;20111;-72
2023/04/04 02:53:15;;;;;;;4.28;2.22;;;;;;;3.95;31.64;102471.38;5064359;28;19992;-72
2023/04/04 02:55:45;;;;;;;4.93;2.20;;;;;;;3.96;31.91;102473.16;5076812;28;20045;-72
2023/04/04 02:58:13;;;;;;;5.88;2.40;;;;;;;3.96;31.70;102466.84;5046456;28;20045;-72
2023/04/04 03:00:42;;;;;;;5.43;2.42;;;;;;;3.95;31.79;102467.78;5055420;28;20051;-72
2023/04/04 03:03:11;;;;;;;3.85;2.13;;;;;;;3.92;31.71;102467.88;5058754;28;20047;-72
2023/04/04 03:05:44;;;;;;;4.97;2.38;;;;;;;3.89;31.65;102468.00;5065156;28;20407;-72
2023/04/04 03:08:12;;;;;;;5.47;2.70;;;;;;;3.84;31.72;102464.53;5054513;28;20049;-72
2023/04/04 03:10:40;;;;;;;3.67;2.10;;;;;;;3.84;31.75;102473.56;5050447;28;20044;-72
2023/04/04 03:13:08;;;;;;;3.97;2.10;;;;;;;3.82;32.06;102469.13;5056701;28;20046;-72
2023/04/04 03:15:36;;;;;;;4.32;2.20;;;;;;;3.78;32.01;102466.53;5057383;28;20052;-72
2023/04/04 03:18:06;;;;;;;3.65;2.13;;;;;;;3.78;32.28;102471.06;5052175;28;20040;-72
2023/04/04 03:20:34;;;;;;;3.45;2.25;;;;;;;3.74;31.91;102467.56;5055889;28;20419;-72
2023/04/04 03:23:02;;;;;;;4.80;2.63;;;;;;;3.72;32.17;102469.47;5059934;28;20051;-72
2023/04/04 03:25:30;;;;;;;3.65;2.30;;;;;;;3.70;31.98;102467.72;5065176;28;20413;-72
2023/04/04 03:27:58;;;;;;;3.13;1.98;;;;;;;3.68;31.98;102472.31;5057929;28;20395;-72
2023/04/04 03:30:27;;;;;;;4.57;2.35;;;;;;;3.66;32.09;102469.63;5058958;28;20385;-72
2023/04/04 03:32:55;;;;;;;3.90;1.90;;;;;;;3.65;32.27;102469.69;5056666;28;20045;-72
2023/04/04 03:35:24;;;;;;;4.18;2.28;;;;;;;3.64;32.20;102473.34;5046038;28;20040;-72
2023/04/04 03:37:55;;;;;;;4.05;2.10;;;;;;;3.62;32.44;102472.50;5060816;28;20037;-72
2023/04/04 03:40:23;;;;;;;4.50;2.00;;;;;;;3.60;32.24;102472.56;5050235;28;20399;-72
2023/04/04 03:42:51;;;;;;;3.92;1.90;;;;;;;3.59;32.20;102467.19;5055798;28;20115;-74
2023/04/04 03:45:20;;;;;;;3.55;2.10;;;;;;;3.58;32.23;102468.13;5059167;28;20095;-74
2023/04/04 03:47:48;;;;;;;3.30;2.00;;;;;;;3.56;32.28;102465.50;5051263;28;20072;-71
2023/04/04 03:50:17;;;;;;;4.38;2.42;;;;;;;3.55;32.31;102473.66;5059029;28;20482;-72
2023/04/04 03:52:52;;;;;;;4.45;2.20;;;;;;;3.55;32.44;102466.41;5052707;28;20045;-71
2023/04/04 03:55:20;;;;;;;3.95;2.33;;;;;;;3.53;32.30;102460.16;5055580;28;20076;-71
2023/04/04 03:57:48;;;;;;;3.55;2.25;;;;;;;3.52;32.58;102458.38;5066926;28;20045;-71
2023/04/04 04:00:17;;;;;;;3.65;2.20;;;;;;;3.50;32.38;102453.94;5055452;28;20051;-71
2023/04/04 04:02:45;;;;;;;3.42;2.00;;;;;;;3.49;32.43;102458.47;5060812;28;20071;-71
2023/04/04 04:05:13;;;;;;;3.95;2.28;;;;;;;3.49;32.36;102446.75;5067496;28;20507;-71
2023/04/04 04:07:44;;;;;;;4.55;2.40;;;;;;;3.49;32.60;102447.66;5086561;28;20044;-71
2023/04/04 04:10:14;;;;;;;4.47;2.17;;;;;;;3.48;32.94;102450.44;5055348;28;20040;-72
2023/04/04 04:12:41;;;;;;;3.88;2.28;;;;;;;3.45;32.62;102450.53;5063608;28;20047;-72
2023/04/04 04:15:10;;;;;;;4.05;2.50;;;;;;;3.45;32.55;102451.41;5057854;28;20583;-72
2023/04/04 04:17:40;;;;;;;6.68;2.70;;;;;;;3.44;32.62;102451.44;5057241;28;20059;-72
2023/04/04 04:20:11;;;;;;;3.85;2.53;;;;;;;3.44;32.64;102451.44;5056775;28;20059;-72
2023/04/04 04:22:49;;;;;;;4.50;2.28;;;;;;;3.41;32.97;102452.44;5054812;28;20049;-72
2023/04/04 04:25:21;;;;;;;3.72;2.10;;;;;;;3.43;32.49;102455.97;5054266;28;20049;-71
2023/04/04 04:28:02;;;;;;;4.90;2.30;;;;;;;3.36;33.08;102455.31;5059724;28;20631;-73
2023/04/04 04:30:31;;;;;;;5.20;2.50;;;;;;;3.37;32.64;102457.06;5053697;28;20057;-72
2023/04/04 04:32:59;;;;;;;4.70;2.38;;;;;;;3.36;32.72;102446.28;5052703;28;20076;-74
2023/04/04 04:35:37;;;;;;;4.13;2.38;;;;;;;3.35;32.85;102442.69;5056650;28;20129;-72
2023/04/04 04:38:06;;;;;;;4.88;2.40;;;;;;;3.33;32.71;102446.38;5062941;28;20471;-72
2023/04/04 04:40:35;;;;;;;5.80;2.88;;;;;;;3.33;32.72;102441.84;5059016;28;20231;-72
2023/04/04 04:43:12;;;;;;;4.25;2.30;;;;;;;3.31;32.60;102445.56;5061083;28;20055;-72
2023/04/04 04:45:41;;;;;;;4.97;2.50;;;;;;;3.31;32.62;102446.47;5061460;28;20053;-73
2023/04/04 04:48:11;;;;;;;4.47;2.38;;;;;;;3.30;32.96;102443.75;5046776;28;20037;-72
2023/04/04 04:50:47;;;;;;;4.55;2.38;;;;;;;3.28;32.91;102441.09;5053700;28;20053;-72
2023/04/04 04:53:24;;;;;;;5.10;2.45;;;;;;;3.26;32.94;102440.25;5079164;28;20121;-73
2023/04/04 04:55:54;;;;;;;4.90;2.58;;;;;;;3.26;32.91;102445.66;5056965;28;20430;-73
2023/04/04 04:58:22;;;;;;;4.32;2.60;;;;;;;3.24;32.90;102447.53;5062094;28;20099;-72
2023/04/04 05:00:56;;;;;;;3.80;2.30;;;;;;;3.22;33.17;102446.72;5078943;28;20102;-73
2023/04/04 05:03:32;;;;;;;5.65;2.65;;;;;;;3.20;33.07;102447.69;5062779;28;20041;-73
2023/04/04 05:06:00;;;;;;;5.13;2.70;;;;;;;3.19;33.01;102449.50;5062229;28;20461;-73
2023/04/04 05:08:29;;;;;;;5.43;3.28;;;;;;;3.18;32.88;102445.03;5048775;28;20484;-73
2023/04/04 05:11:13;;;;;;;;;;;;;;;2.94;33.66;102451.19;5054479;28;20068;-72
2023/04/04 05:13:41;;;;;;;5.93;2.80;;;;;;;3.10;32.93;102447.09;5061440;28;19928;-74
2023/04/04 05:16:09;;;;;;;4.97;2.80;;;;;;;3.13;32.90;102440.69;5066182;28;20056;-73
2023/04/04 05:18:37;;;;;;;6.55;2.67;;;;;;;3.12;33.13;102441.63;5062115;28;20463;-73
2023/04/04 05:21:10;;;;;;;5.28;2.65;;;;;;;3.10;33.16;102449.78;5057376;28;20053;-72
2023/04/04 05:23:38;;;;;;;6.40;2.83;;;;;;;3.11;33.09;102447.97;5061654;28;20052;-73
2023/04/04 05:26:07;;;;;;;6.07;2.97;;;;;;;3.10;33.02;102454.31;5072335;28;20381;-72
2023/04/04 05:28:40;;;;;;;7.00;2.85;;;;;;;3.10;33.24;102451.59;5057693;28;20071;-71
2023/04/04 05:31:08;;;;;;;5.15;3.00;;;;;;;3.07;33.25;102449.88;5058149;28;20051;-71
2023/04/04 05:33:37;;;;;;;4.72;2.80;;;;;;;3.06;33.43;102456.25;5063646;28;20416;-71
2023/04/04 05:36:26;;;;;;;4.90;2.80;;;;;;;3.04;33.46;102455.41;5058368;28;20080;-71
2023/04/04 05:39:00;;;;;;;4.25;2.53;;;;;;;3.03;33.42;102457.22;5072446;28;20048;-71
2023/04/04 05:41:32;;;;;;;5.18;2.65;;;;;;;3.03;33.48;102465.31;5059897;28;20377;-72
2023/04/04 05:44:09;;;;;;;4.55;2.70;;;;;;;3.05;33.45;102467.09;5062409;28;20440;-71
2023/04/04 05:46:37;;;;;;;4.30;2.90;;;;;;;3.05;33.68;102467.09;5056796;28;20076;-71
2023/04/04 05:49:07;;;;;;;6.60;2.83;;;;;;;3.06;33.68;102468.88;5056301;28;20033;-71
2023/04/04 05:51:39;;;;;;;5.50;2.83;;;;;;;3.06;33.77;102469.75;5049273;28;20102;-71
2023/04/04 05:54:10;;;;;;;5.20;2.78;;;;;;;3.08;33.36;102473.28;5060937;28;20048;-71
2023/04/04 05:56:39;;;;;;;6.50;3.03;;;;;;;3.11;33.74;102477.72;5060822;28;20471;-71
2023/04/04 05:59:16;;;;;;;5.43;2.90;;;;;;;3.11;33.63;102475.91;5061735;28;20070;-71
2023/04/04 06:01:56;;;;;;;6.05;2.58;;;;;;;3.11;33.66;102480.44;5076006;28;20127;-71
2023/04/04 06:04:24;;;;;;;5.05;2.67;;;;;;;3.12;33.75;102484.91;5078107;28;20067;-72
2023/04/04 06:06:54;;;;;;;4.97;2.78;;;;;;;3.14;33.86;102492.06;5058761;28;20431;-72
2023/04/04 06:09:23;;;;;;;4.15;2.88;;;;;;;3.16;34.05;102495.56;5059949;28;20476;-72
2023/04/04 06:11:51;;;;;;;6.50;2.80;;;;;;;3.20;34.14;102499.09;5072356;28;20052;-72
2023/04/04 06:14:20;;;;;;;4.75;2.70;;;;;;;3.25;34.22;102495.28;5060574;28;20052;-72
2023/04/04 06:16:48;;;;;;;4.72;3.00;;;;;;;3.32;34.49;102504.13;5076004;28;20143;-71
2023/04/04 06:19:16;;;;;;;6.78;2.90;;;;;;;3.40;34.84;102497.56;5059013;28;20401;-71
2023/04/04 06:21:46;;;;;;;5.53;3.33;;;;;;;3.50;34.56;102503.56;5050700;28;20480;-72
2023/04/04 06:24:15;;;;;;;5.97;3.25;;;;;;;3.59;34.16;102505.97;5077094;28;20055;-72
2023/04/04 06:26:43;;;;;;;5.05;2.65;;;;;;;3.70;34.58;102501.09;5054384;28;20052;-72
2023/04/04 06:29:12;;;;;;;7.18;3.00;;;;;;;3.78;34.51;102509.88;5055361;28;20041;-71
2023/04/04 06:31:43;;;;;;;6.20;3.22;;;;;;;3.90;34.22;102504.97;5056433;28;20056;-71
2023/04/04 06:34:21;;;;;;;7.03;3.38;;;;;;;3.97;34.15;102515.56;5058515;28;20052;-72
2023/04/04 06:36:57;;;;;;;4.88;3.03;;;;;;;4.07;34.06;102513.41;5051345;28;20464;-71
2023/04/04 06:39:30;;;;;;;5.75;3.17;;;;;;;4.18;34.57;102513.03;5059329;28;20041;-72
2023/04/04 06:42:01;;;;;;;6.28;3.10;;;;;;;4.30;34.35;102512.63;5066657;28;20048;-71
2023/04/04 06:44:31;;;;;;;7.40;3.10;;;;;;;4.41;33.98;102516.72;5062464;28;20063;-71
2023/04/04 06:47:00;;;;;;;6.30;3.33;;;;;;;4.55;33.91;102508.09;5060984;28;20051;-72
2023/04/04 06:49:28;;;;;;;6.70;3.47;;;;;;;4.65;34.35;102508.63;5057695;28;20483;-71
2023/04/04 06:51:57;;;;;;;5.60;3.05;;;;;;;4.75;33.89;102507.34;5060121;28;20106;-72
2023/04/04 06:54:26;;;;;;;6.07;3.47;;;;;;;4.84;33.82;102512.44;5111473;22;20478;-70
2023/04/04 06:56:54;;;;;;;5.38;2.70;;;;;;;4.94;33.73;102511.16;5025143;28;20508;-71
2023/04/04 06:59:22;;;;;;;6.07;3.08;;;;;;;5.07;34.06;102520.59;5020000;28;20126;-70
2023/04/04 07:01:50;;;;;;;5.60;2.85;;;;;;;5.20;33.89;102521.06;5016173;28;20812;-69
2023/04/04 07:04:20;;;;;;;6.07;3.03;;;;;;;5.36;33.58;102526.78;5022635;28;20411;-70
2023/04/04 07:06:48;;;;;;;5.22;3.20;;;;;;;5.48;33.90;102524.44;5024356;28;20041;-71
2023/04/04 07:09:16;;;;;;;5.97;2.63;;;;;;;5.62;33.73;102522.03;5021108;28;20049;-67
2023/04/04 07:11:56;;;;;;;5.32;2.60;;;;;;;5.84;34.08;102516.63;5021920;28;20053;-70
2023/04/04 07:14:24;;;;;;;4.65;2.33;;;;;;;6.01;33.46;102516.81;5028453;28;20411;-73
2023/04/04 07:16:53;;;;;;;4.45;2.03;;;;;;;6.28;33.83;102524.75;5027436;28;20411;-73
2023/04/04 07:19:27;;;;;;;4.47;2.15;;;;;;;6.57;33.87;102515.31;5028639;28;20515;-70
2023/04/04 07:21:55;;;;;;;3.30;1.77;;;;;;;6.89;33.72;102524.75;5028216;28;20099;-68
2023/04/04 07:24:23;;;;;;;2.88;1.52;;;;;;;7.24;33.36;102529.47;5030823;28;20096;-68
2023/04/04 07:26:51;;;;;;;2.40;1.27;;;;;;;7.59;33.32;102522.34;5030646;28;20049;-71
2023/04/04 07:29:20;;;;;;;4.03;1.42;;;;;;;7.95;32.75;102522.34;5031727;28;20037;-68
2023/04/04 07:31:48;;;;;;;2.63;1.40;;;;;;;8.30;31.71;102520.56;5030870;28;20046;-70
2023/04/04 07:34:16;;;;;;;2.83;1.30;;;;;;;8.64;31.82;102514.22;5029138;28;20053;-68
2023/04/04 07:36:45;;;;;;;3.22;1.40;;;;;;;8.97;30.94;102514.25;5043259;28;20041;-69
2023/04/04 07:39:13;;;;;;;3.50;1.60;;;;;;;9.23;30.70;102519.19;5042131;28;20045;-70
2023/04/04 07:41:41;;;;;;;2.72;1.75;;;;;;;9.46;30.23;102513.31;5018014;28;20137;-73
2023/04/04 07:44:09;;;;;;;2.63;1.30;;;;;;;9.66;29.59;102516.78;5002181;28;20112;-71
2023/04/04 07:46:41;;;;;;;2.58;1.02;;;;;;;9.84;28.85;102507.50;5021104;28;20045;-71
2023/04/04 07:49:11;;;;;;;4.20;1.50;;;;;;;9.96;28.45;102508.63;5029600;28;20215;-71
2023/04/04 07:51:40;;;;;;;2.78;1.60;;;;;;;10.08;27.96;102508.78;5028505;28;20567;-72
2023/04/04 07:54:09;;;;;;;2.88;1.40;;;;;;;10.19;27.67;102502.66;5031147;28;20041;-71
2023/04/04 07:56:37;;;;;;;2.55;1.30;;;;;;;10.24;27.75;102506.00;5030841;28;20053;-70
2023/04/04 07:59:05;;;;;;;2.97;1.38;;;;;;;10.31;26.97;102501.94;5030357;28;20053;-69
2023/04/04 08:01:33;;;;;;;1.90;1.30;;;;;;;10.35;27.07;102503.50;5030194;28;20053;-69
2023/04/04 08:04:01;;;;;;;2.40;1.30;;;;;;;10.36;26.29;102505.28;5031531;28;20045;-68
2023/04/04 08:06:30;;;;;;;2.25;1.20;;;;;;;10.35;26.65;102505.34;5029554;28;20408;-70
2023/04/04 08:08:57;;;;;;;3.00;1.40;;;;;;;10.31;25.77;102490.13;5031027;28;20053;-69
2023/04/04 08:11:27;;;;;;;2.63;1.23;;;;;;;10.29;26.08;102489.31;5040311;28;20049;-70
2023/04/04 08:13:55;;;;;;;2.53;1.30;;;;;;;10.17;25.40;102483.59;5029697;28;20497;-71
2023/04/04 08:16:23;;;;;;;3.42;1.63;;;;;;;10.07;24.89;102484.28;5039008;28;20651;-72
2023/04/04 08:18:51;;;;;;;4.07;1.60;;;;;;;10.04;25.41;102487.19;5030009;28;20046;-71
2023/04/04 08:21:19;;;;;;;2.42;1.30;;;;;;;9.95;25.24;102485.88;5019971;28;20064;-70
2023/04/04 08:23:47;;;;;;;3.15;1.58;;;;;;;9.89;25.38;102488.09;5010889;28;20042;-71
2023/04/04 08:26:15;;;;;;;3.83;1.60;;;;;;;9.80;25.12;102476.72;5017937;28;20420;-71
2023/04/04 08:28:45;;;;;;;3.40;1.45;;;;;;;9.74;25.24;102487.16;5012042;28;20412;-71
2023/04/04 08:31:13;;;;;;;3.47;1.50;;;;;;;9.65;25.99;102491.28;5036590;28;20049;-71
2023/04/04 08:33:41;;;;;;;3.33;1.52;;;;;;;9.58;25.42;102488.97;5049769;28;20041;-72
2023/04/04 08:36:14;;;;;;;4.57;1.90;;;;;;;9.52;25.75;102487.47;5036111;28;20056;-71
2023/04/04 08:38:43;;;;;;;2.97;1.65;;;;;;;9.43;25.27;102488.88;5029707;28;20092;-71
2023/04/04 08:41:15;;;;;;;3.80;1.65;;;;;;;9.42;25.48;102500.78;5017830;28;20066;-72
2023/04/04 08:43:53;;;;;;;3.63;1.70;;;;;;;9.37;25.46;102489.22;5009481;28;20510;-72
2023/04/04 08:46:23;;;;;;;3.17;1.63;;;;;;;9.37;26.31;102491.06;5018844;28;20049;-72
2023/04/04 08:48:53;;;;;;;3.75;1.60;;;;;;;9.36;26.15;102492.91;5015828;28;20103;-69
2023/04/04 08:51:22;;;;;;;4.07;1.50;;;;;;;9.37;26.05;102485.59;5007295;28;20049;-69
2023/04/04 08:53:50;;;;;;;2.95;1.45;;;;;;;9.36;25.92;102478.38;5010531;28;20053;-72
2023/04/04 08:56:18;;;;;;;2.33;1.50;;;;;;;9.38;25.96;102482.81;5018799;28;20056;-71
2023/04/04 08:58:47;;;;;;;2.80;1.48;;;;;;;9.42;25.91;102488.97;5021400;28;20049;-71
2023/04/04 09:01:16;;;;;;;3.35;1.67;;;;;;;9.39;25.75;102487.31;5025472;28;20049;-71
2023/04/04 09:03:44;;;;;;;2.85;1.60;;;;;;;9.34;25.30;102489.38;5029580;28;20053;-71
2023/04/04 09:06:13;;;;;;;4.07;1.75;;;;;;;9.35;25.10;102485.69;5028737;28;20076;-70
2023/04/04 09:08:42;;;;;;;3.13;1.63;;;;;;;9.22;24.58;102481.00;5029131;28;20519;-68
2023/04/04 09:11:11;;;;;;;3.10;1.70;;;;;;;9.22;24.51;102481.88;5015671;28;20536;-71
2023/04/04 09:13:41;;;;;;;2.47;1.45;;;;;;;9.22;24.74;102489.19;5023383;28;20049;-69
2023/04/04 09:16:10;;;;;;;4.15;1.90;;;;;;;9.10;24.09;102488.03;5027781;28;20037;-69
2023/04/04 09:18:38;;;;;;;4.00;1.80;;;;;;;8.99;24.21;102487.75;5044771;28;20344;-70
2023/04/04 09:21:10;;;;;;;4.03;1.90;;;;;;;8.97;23.46;102489.69;5027544;28;20056;-70
2023/04/04 09:23:38;;;;;;;3.80;1.60;;;;;;;8.95;24.67;102488.88;5027036;28;20055;-69
2023/04/04 09:26:06;;;;;;;2.75;1.50;;;;;;;8.90;24.65;102485.53;5024946;28;20053;-71
2023/04/04 09:28:35;;;;;;;4.82;2.03;;;;;;;8.79;24.38;102485.22;5027490;28;20416;-70
2023/04/04 09:31:06;;;;;;;3.47;1.90;;;;;;;8.82;24.57;102477.75;5028037;28;20076;-70
2023/04/04 09:33:38;;;;;;;3.20;1.70;;;;;;;8.70;23.68;102486.59;5025109;28;20092;-71
2023/04/04 09:36:08;;;;;;;4.07;1.73;;;;;;;8.68;24.29;102469.41;5023054;28;20364;-71
2023/04/04 09:38:39;;;;;;;3.67;2.00;;;;;;;8.73;24.26;102472.81;5027616;28;20519;-70
2023/04/04 09:41:08;;;;;;;2.38;1.42;;;;;;;8.71;24.88;102472.00;5028085;28;20049;-71
2023/04/04 09:43:37;;;;;;;3.35;1.65;;;;;;;8.75;24.98;102468.16;5029464;28;20045;-71
2023/04/04 09:46:06;;;;;;;2.97;1.70;;;;;;;8.73;24.74;102480.09;5027721;28;20041;-70
2023/04/04 09:48:36;;;;;;;3.72;1.80;;;;;;;8.69;24.25;102469.34;5026495;28;20092;-71
2023/04/04 09:51:05;;;;;;;3.65;1.60;;;;;;;8.76;25.09;102456.22;5031056;28;20045;-72
2023/04/04 09:53:35;;;;;;;3.17;1.60;;;;;;;8.81;25.24;102462.34;5030802;28;20044;-70
2023/04/04 09:56:03;;;;;;;3.83;1.70;;;;;;;8.87;25.32;102462.00;5027903;28;20052;-71
2023/04/04 09:58:34;;;;;;;3.13;1.50;;;;;;;8.92;25.31;102457.16;5027635;28;20042;-71
2023/04/04 10:01:05;;;;;;;3.75;1.30;;;;;;;9.03;25.75;102453.84;5022578;28;20045;-72
2023/04/04 10:03:33;;;;;;;2.92;1.50;;;;;;;9.12;25.68;102457.91;5006877;28;20045;-72
2023/04/04 10:06:04;;;;;;;3.03;1.63;;;;;;;9.19;24.75;102454.72;5007425;28;20599;-69
2023/04/04 10:08:34;;;;;;;3.85;1.50;;;;;;;9.30;25.52;102445.94;5012590;28;20137;-71
2023/04/04 10:11:05;;;;;;;4.88;2.15;;;;;;;9.34;25.06;102463.91;5013402;28;20042;-71
2023/04/04 10:13:42;;;;;;;4.47;2.05;;;;;;;9.31;24.66;102444.97;5025890;28;20530;-70
2023/04/04 10:16:10;;;;;;;3.38;1.88;;;;;;;9.26;23.96;102444.34;5026697;28;20515;-71
2023/04/04 10:18:39;;;;;;;3.47;2.00;;;;;;;9.22;23.33;102449.09;5028274;28;20130;-72
2023/04/04 10:21:08;;;;;;;3.95;1.80;;;;;;;9.33;23.53;102448.50;5028194;28;20037;-71
2023/04/04 10:23:41;;;;;;;3.65;1.77;;;;;;;9.22;23.27;102440.91;5027832;28;20128;-70
2023/04/04 10:26:11;;;;;;;3.92;1.70;;;;;;;9.31;23.69;102437.66;5027126;28;20516;-72
2023/04/04 10:28:40;;;;;;;3.30;1.50;;;;;;;9.34;24.25;102447.50;5025153;28;20049;-72
2023/04/04 10:31:17;;;;;;;4.05;1.92;;;;;;;9.33;22.78;102441.16;5015094;28;20099;-71
2023/04/04 10:33:52;;;;;;;3.30;1.77;;;;;;;9.37;23.59;102437.31;5004301;28;20037;-72
2023/04/04 10:36:25;;;;;;;3.35;1.70;;;;;;;9.40;23.28;102428.09;5017564;28;20119;-70
2023/04/04 10:38:58;;;;;;;;;;;;;;;9.15;23.40;102427.69;5022416;28;20038;-71
2023/04/04 10:41:30;;;;;;;3.88;1.85;;;;;;;9.41;24.22;102432.59;5026385;28;20003;-72
2023/04/04 10:44:05;;;;;;;2.97;1.60;;;;;;;9.47;23.86;102434.94;5029694;28;20045;-72
2023/04/04 10:46:37;;;;;;;4.28;1.80;;;;;;;9.49;23.70;102432.13;5031014;28;20362;-70
2023/04/04 10:49:05;;;;;;;4.75;1.73;;;;;;;9.52;23.62;102419.16;5027827;28;20049;-72
2023/04/04 10:51:35;;;;;;;3.50;1.77;;;;;;;9.53;23.14;102407.25;5019932;28;20036;-69
2023/04/04 10:54:12;;;;;;;3.25;1.80;;;;;;;9.56;23.66;102411.66;5025369;28;20563;-69
2023/04/04 10:56:41;;;;;;;3.95;2.00;;;;;;;9.58;24.03;102406.97;5017156;28;20052;-69
2023/04/04 10:59:12;;;;;;;4.15;1.90;;;;;;;9.58;23.57;102396.91;5023793;28;20056;-69
2023/04/04 11:01:48;;;;;;;4.13;1.98;;;;;;;9.61;22.46;102393.13;5026344;28;20517;-69
2023/04/04 11:04:17;;;;;;;3.33;1.90;;;;;;;9.63;22.84;102393.94;5030396;28;20045;-69
2023/04/04 11:07:16;;;;;;;4.55;2.30;;;;;;;9.59;21.95;102392.34;5024777;28;20140;-69
2023/04/04 11:09:51;;;;;;;3.00;1.88;;;;;;;9.62;22.64;102394.91;5027034;28;20077;-70
2023/04/04 11:12:27;;;;;;;3.10;1.80;;;;;;;9.64;22.37;102382.03;5026449;28;20049;-69
2023/04/04 11:14:56;;;;;;;3.50;1.75;;;;;;;9.67;23.60;102376.34;5025059;28;20429;-69
2023/04/04 11:17:41;;;;;;;4.57;2.30;;;;;;;9.64;20.88;102373.84;5026876;28;20082;-69
2023/04/04 11:20:10;;;;;;;2.85;1.77;;;;;;;9.68;23.06;102376.28;5023306;28;20085;-68
2023/04/04 11:22:41;;;;;;;3.53;1.90;;;;;;;9.72;22.84;102374.25;5026422;28;20042;-69
2023/04/04 11:25:34;;;;;;;3.60;2.10;;;;;;;9.70;21.59;102374.34;5026935;28;20041;-69
2023/04/04 11:28:23;;;;;;;;;;;;;;;9.48;22.68;102371.13;5013208;28;20055;-68
2023/04/04 11:31:26;;;;;;;3.72;1.50;;;;;;;9.76;22.92;102379.44;5014973;28;19921;-69
2023/04/04 11:33:56;;;;;;;3.97;1.60;;;;;;;9.80;23.60;102380.13;5021884;28;20053;-68
2023/04/04 11:36:24;;;;;;;3.45;1.60;;;;;;;9.86;23.69;102374.28;5024572;28;20421;-68
2023/04/04 11:38:57;;;;;;;3.55;1.70;;;;;;;9.82;22.67;102359.91;5027348;28;20056;-69
2023/04/04 11:41:43;;;;;;;3.30;1.95;;;;;;;9.79;21.45;102367.44;5024526;28;20049;-69
2023/04/04 11:44:11;;;;;;;3.25;2.08;;;;;;;9.76;23.04;102376.69;5032517;28;20052;-68
2023/04/04 11:46:41;;;;;;;4.20;2.30;;;;;;;9.83;22.57;102364.41;5039724;28;20230;-69
2023/04/04 11:49:10;;;;;;;4.03;1.90;;;;;;;9.84;22.60;102373.50;5026078;28;20276;-68